createdAt,value
2022-08-03T00:02:21.141Z,15.10
2022-08-03T00:04:51.070Z,15.20
2022-08-03T00:07:19.620Z,15.20
2022-08-03T00:09:48.316Z,15.10
2022-08-03T00:12:17.130Z,15.10
2022-08-03T00:14:45.886Z,15.00
2022-08-03T00:17:14.489Z,15.00
2022-08-03T00:19:43.087Z,15.00
2022-08-03T00:22:13.102Z,15.00
2022-08-03T00:24:41.819Z,15.00
2022-08-03T00:27:10.531Z,15.00
2022-08-03T00:29:57.359Z,15.00
2022-08-03T00:32:29.041Z,14.90
2022-08-03T00:34:58.982Z,14.80
2022-08-03T00:37:40.660Z,14.80
2022-08-03T00:40:11.886Z,14.70
2022-08-03T00:42:54.057Z,14.70
2022-08-03T00:45:23.577Z,14.70
2022-08-03T00:47:52.175Z,14.60
2022-08-03T00:50:22.967Z,14.60
2022-08-03T00:52:53.621Z,14.70
2022-08-03T00:55:22.620Z,14.70
2022-08-03T00:57:51.290Z,14.70
2022-08-03T01:00:20.975Z,14.70
2022-08-03T01:02:51.795Z,14.60
2022-08-03T01:05:20.721Z,14.30
2022-08-03T01:07:58.865Z,14.50
2022-08-03T01:10:33.078Z,14.40
2022-08-03T01:13:04.867Z,14.40
2022-08-03T01:15:37.244Z,14.30
2022-08-03T01:18:09.107Z,14.30
2022-08-03T01:20:39.449Z,14.30
2022-08-03T01:23:17.296Z,14.40
2022-08-03T01:25:59.905Z,14.40
2022-08-03T01:28:42.941Z,14.50
2022-08-03T01:31:14.439Z,14.40
2022-08-03T01:33:44.219Z,14.30
2022-08-03T01:36:14.934Z,14.30
2022-08-03T01:38:44.984Z,14.20
2022-08-03T01:41:18.803Z,14.20
2022-08-03T01:44:28.398Z,14.30
2022-08-03T01:46:48.267Z,14.30
2022-08-03T01:49:18.120Z,14.30
2022-08-03T01:51:57.733Z,14.30
2022-08-03T01:54:34.739Z,14.20
2022-08-03T01:57:03.966Z,14.20
2022-08-03T01:59:33.696Z,14.10
2022-08-03T02:02:16.101Z,14.10
2022-08-03T02:04:54.826Z,14.00
2022-08-03T02:07:24.597Z,14.00
2022-08-03T02:09:54.421Z,14.00
2022-08-03T02:12:24.997Z,13.90
2022-08-03T02:14:54.913Z,13.90
2022-08-03T02:17:38.730Z,13.90
2022-08-03T02:20:09.926Z,13.90
2022-08-03T02:22:40.530Z,13.90
2022-08-03T02:25:09.867Z,13.90
2022-08-03T02:27:43.647Z,13.80
2022-08-03T02:30:13.548Z,13.80
2022-08-03T02:32:45.153Z,13.80
2022-08-03T02:35:16.361Z,13.80
2022-08-03T02:37:49.823Z,13.90
2022-08-03T02:40:19.999Z,13.90
2022-08-03T02:42:50.589Z,13.90
2022-08-03T02:45:19.605Z,14.00
2022-08-03T02:47:53.938Z,14.00
2022-08-03T02:50:24.413Z,14.00
2022-08-03T02:52:54.209Z,14.10
2022-08-03T02:55:23.531Z,14.10
2022-08-03T02:57:52.827Z,14.10
2022-08-03T03:00:28.391Z,14.10
2022-08-03T03:03:00.417Z,14.10
2022-08-03T03:05:54.593Z,14.10
2022-08-03T03:08:20.770Z,14.10
2022-08-03T03:10:55.627Z,14.20
2022-08-03T03:13:25.141Z,14.20
2022-08-03T03:15:54.321Z,14.20
2022-08-03T03:18:25.042Z,14.20
2022-08-03T03:20:54.252Z,14.20
2022-08-03T03:23:23.473Z,14.30
2022-08-03T03:25:52.762Z,14.30
2022-08-03T03:28:21.584Z,14.40
2022-08-03T03:30:52.810Z,14.40
2022-08-03T03:33:22.198Z,14.50
2022-08-03T03:35:52.930Z,14.60
2022-08-03T03:38:21.691Z,14.60
2022-08-03T03:40:51.378Z,13.00
2022-08-03T03:43:20.058Z,14.80
2022-08-03T03:45:48.822Z,14.80
2022-08-03T03:48:17.678Z,14.90
2022-08-03T03:50:46.643Z,14.90
2022-08-03T03:53:16.724Z,15.00
2022-08-03T03:55:57.872Z,15.00
2022-08-03T03:58:32.226Z,15.10
2022-08-03T04:01:01.225Z,15.20
2022-08-03T04:03:29.848Z,15.30
2022-08-03T04:06:15.818Z,15.40
2022-08-03T04:09:03.557Z,15.50
2022-08-03T04:11:35.776Z,15.50
2022-08-03T04:14:06.900Z,15.60
2022-08-03T04:16:41.883Z,15.80
2022-08-03T04:19:13.690Z,15.90
2022-08-03T04:21:44.557Z,16.00
2022-08-03T04:24:15.482Z,16.10
2022-08-03T04:26:46.653Z,16.30
2022-08-03T04:29:17.250Z,16.40
2022-08-03T04:31:46.767Z,16.60
2022-08-03T04:34:15.580Z,16.80
2022-08-03T04:36:49.012Z,16.90
2022-08-03T04:39:20.781Z,17.20
2022-08-03T04:42:02.302Z,17.30
2022-08-03T04:44:37.875Z,17.40
2022-08-03T04:47:06.657Z,17.50
2022-08-03T04:49:37.247Z,17.60
2022-08-03T04:52:06.429Z,17.70
2022-08-03T04:54:41.832Z,17.80
2022-08-03T04:57:11.255Z,18.10
2022-08-03T04:59:59.619Z,18.20
2022-08-03T05:02:31.898Z,18.30
2022-08-03T05:05:00.608Z,18.40
2022-08-03T05:07:36.205Z,18.60
2022-08-03T05:10:16.357Z,18.80
2022-08-03T05:12:46.659Z,18.90
2022-08-03T05:15:15.944Z,19.00
2022-08-03T05:17:44.840Z,19.10
2022-08-03T05:20:13.465Z,19.30
2022-08-03T05:22:45.210Z,19.40
2022-08-03T05:25:17.757Z,19.40
2022-08-03T05:27:49.424Z,19.40
2022-08-03T05:30:29.867Z,19.30
2022-08-03T05:33:03.203Z,19.30
2022-08-03T05:35:55.843Z,19.30
2022-08-03T05:38:28.191Z,19.30
2022-08-03T05:41:21.855Z,19.40
2022-08-03T05:43:48.003Z,19.40
2022-08-03T05:46:16.682Z,19.50
2022-08-03T05:48:45.398Z,19.70
2022-08-03T05:51:19.842Z,19.80
2022-08-03T05:53:48.481Z,19.70
2022-08-03T05:56:18.495Z,19.80
2022-08-03T05:58:51.752Z,19.90
2022-08-03T06:01:22.083Z,19.90
2022-08-03T06:03:52.058Z,19.90
2022-08-03T06:06:21.117Z,19.90
2022-08-03T06:08:49.919Z,19.80
2022-08-03T06:11:20.239Z,19.80
2022-08-03T06:13:49.123Z,19.80
2022-08-03T06:16:17.780Z,19.90
2022-08-03T06:18:47.398Z,19.80
2022-08-03T06:21:16.389Z,19.90
2022-08-03T06:23:52.545Z,19.90
2022-08-03T06:26:23.704Z,19.90
2022-08-03T06:28:54.239Z,19.80
2022-08-03T06:31:32.256Z,19.80
2022-08-03T06:34:32.543Z,19.90
2022-08-03T06:36:52.356Z,19.90
2022-08-03T06:39:23.408Z,19.90
2022-08-03T06:41:54.569Z,20.00
2022-08-03T06:44:24.246Z,20.10
2022-08-03T06:46:53.093Z,20.10
2022-08-03T06:49:21.878Z,20.30
2022-08-03T06:52:03.330Z,20.50
2022-08-03T06:54:35.972Z,20.80
2022-08-03T06:57:08.376Z,21.10
2022-08-03T07:00:10.410Z,21.30
2022-08-03T07:02:26.819Z,21.50
2022-08-03T07:04:57.686Z,21.70
2022-08-03T07:09:57.584Z,22.10
2022-08-03T07:12:29.690Z,22.10
2022-08-03T07:15:01.412Z,22.00
2022-08-03T07:17:31.880Z,21.80
2022-08-03T07:20:01.541Z,21.70
2022-08-03T07:22:30.311Z,21.70
2022-08-03T07:24:59.172Z,21.70
2022-08-03T07:27:30.435Z,21.60
2022-08-03T07:29:59.850Z,21.40
2022-08-03T07:32:31.503Z,21.30
2022-08-03T07:35:01.443Z,21.30
2022-08-03T07:37:30.893Z,21.30
2022-08-03T07:39:59.767Z,21.30
2022-08-03T07:42:30.373Z,21.40
2022-08-03T07:44:59.263Z,21.40
2022-08-03T07:47:34.971Z,21.60
2022-08-03T07:50:05.892Z,21.80
2022-08-03T07:52:51.858Z,22.00
2022-08-03T07:55:21.428Z,22.20
2022-08-03T07:58:00.333Z,22.40
2022-08-03T08:00:29.288Z,22.60
2022-08-03T08:02:57.944Z,22.80
2022-08-03T08:05:26.817Z,22.90
2022-08-03T08:07:55.524Z,23.00
2022-08-03T08:10:24.366Z,23.20
2022-08-03T08:12:53.087Z,23.20
2022-08-03T08:15:22.989Z,23.40
2022-08-03T08:17:55.170Z,23.50
2022-08-03T08:20:30.777Z,23.50
2022-08-03T08:23:02.784Z,23.60
2022-08-03T08:25:33.103Z,23.60
2022-08-03T08:28:25.304Z,23.80
2022-08-03T08:30:53.825Z,23.80
2022-08-03T08:33:23.969Z,23.90
2022-08-03T08:35:54.315Z,24.10
2022-08-03T08:38:23.674Z,24.20
2022-08-03T08:40:52.652Z,24.20
2022-08-03T08:43:21.292Z,24.30
2022-08-03T08:45:51.387Z,24.20
2022-08-03T08:48:24.636Z,24.20
2022-08-03T08:50:54.070Z,24.30
2022-08-03T08:53:27.306Z,24.50
2022-08-03T08:55:59.207Z,24.70
2022-08-03T08:58:30.406Z,24.80
2022-08-03T09:00:59.221Z,24.80
2022-08-03T09:03:30.765Z,24.90
2022-08-03T09:06:00.736Z,25.00
2022-08-03T09:08:29.837Z,24.90
2022-08-03T09:10:58.972Z,25.00
2022-08-03T09:13:29.081Z,25.20
2022-08-03T09:16:11.211Z,25.30
2022-08-03T09:18:41.585Z,25.40
2022-08-03T09:21:36.279Z,25.30
2022-08-03T09:24:10.271Z,25.40
2022-08-03T09:26:52.114Z,25.40
2022-08-03T09:29:23.000Z,25.40
2022-08-03T09:32:00.859Z,25.50
2022-08-03T09:34:31.069Z,25.60
2022-08-03T09:36:59.942Z,25.70
2022-08-03T09:39:42.011Z,25.80
2022-08-03T09:42:14.876Z,25.90
2022-08-03T09:44:44.586Z,25.80
2022-08-03T09:47:13.964Z,26.00
2022-08-03T09:49:44.419Z,26.10
2022-08-03T09:52:37.637Z,26.20
2022-08-03T09:55:04.045Z,26.20
2022-08-03T09:57:32.636Z,26.20
2022-08-03T10:00:10.332Z,26.20
2022-08-03T10:02:42.114Z,26.40
2022-08-03T10:05:19.779Z,26.50
2022-08-03T10:07:49.744Z,26.60
2022-08-03T10:10:29.117Z,26.50
2022-08-03T10:13:01.272Z,26.60
2022-08-03T10:16:22.448Z,26.50
2022-08-03T10:18:19.145Z,26.60
2022-08-03T10:20:50.941Z,26.80
2022-08-03T10:23:20.027Z,27.00
2022-08-03T10:25:50.543Z,27.30
2022-08-03T10:28:20.708Z,27.40
2022-08-03T10:30:50.747Z,27.50
2022-08-03T10:33:51.197Z,27.60
2022-08-03T10:36:10.680Z,27.90
2022-08-03T10:38:41.589Z,27.80
2022-08-03T10:41:11.130Z,27.70
2022-08-03T10:43:45.012Z,27.90
2022-08-03T10:46:15.486Z,28.00
2022-08-03T10:48:44.612Z,28.20
2022-08-03T10:51:15.170Z,28.30
2022-08-03T10:53:54.387Z,28.40
2022-08-03T10:57:03.404Z,28.50
2022-08-03T11:00:04.542Z,28.50
2022-08-03T11:02:53.173Z,28.50
2022-08-03T11:05:28.582Z,28.30
2022-08-03T11:08:15.911Z,27.10
2022-08-03T11:10:45.936Z,28.30
2022-08-03T11:13:16.881Z,28.50
2022-08-03T11:15:46.724Z,28.70
2022-08-03T11:18:15.895Z,28.90
2022-08-03T11:20:45.363Z,29.10
2022-08-03T11:23:14.230Z,29.30
2022-08-03T11:26:01.499Z,29.50
2022-08-03T11:28:33.668Z,29.30
2022-08-03T11:31:39.244Z,29.30
2022-08-03T11:34:06.121Z,29.20
2022-08-03T11:36:49.729Z,29.10
2022-08-03T11:39:18.384Z,29.00
2022-08-03T11:41:47.053Z,29.00
2022-08-03T11:44:30.600Z,29.10
2022-08-03T11:47:04.234Z,29.10
2022-08-03T11:49:33.153Z,29.40
2022-08-03T11:52:04.931Z,29.40
2022-08-03T11:54:33.888Z,29.70
2022-08-03T11:57:02.518Z,30.00
2022-08-03T11:59:33.283Z,30.30
2022-08-03T12:02:08.930Z,30.60
2022-08-03T12:04:50.723Z,30.30
2022-08-03T12:07:25.867Z,30.40
2022-08-03T12:10:09.003Z,30.50
2022-08-03T12:12:37.892Z,28.90
2022-08-03T12:15:07.385Z,30.50
2022-08-03T12:17:37.956Z,30.60
2022-08-03T12:20:07.740Z,31.20
2022-08-03T12:22:38.270Z,32.00
2022-08-03T12:25:07.752Z,33.10
2022-08-03T12:27:36.807Z,33.70
2022-08-03T12:30:05.943Z,33.40
2022-08-03T12:32:34.714Z,33.80
2022-08-03T12:35:06.029Z,34.20
2022-08-03T12:37:37.767Z,34.80
2022-08-03T12:40:10.440Z,34.70
2022-08-03T12:42:40.305Z,34.40
2022-08-03T12:45:24.806Z,34.50
2022-08-03T12:47:54.609Z,34.30
2022-08-03T12:50:29.197Z,34.00
2022-08-03T12:52:57.883Z,34.40
2022-08-03T12:55:57.128Z,34.10
2022-08-03T12:58:36.034Z,33.90
2022-08-03T13:01:09.167Z,32.40
2022-08-03T13:03:45.762Z,31.00
2022-08-03T13:06:21.475Z,30.60
2022-08-03T13:08:51.378Z,30.20
2022-08-03T13:11:21.337Z,30.10
2022-08-03T13:13:50.206Z,29.90
2022-08-03T13:16:19.516Z,29.80
2022-08-03T13:18:48.486Z,29.60
2022-08-03T13:21:17.443Z,29.30
2022-08-03T13:23:47.733Z,29.00
2022-08-03T13:26:17.152Z,28.90
2022-08-03T13:28:45.649Z,28.90
2022-08-03T13:31:14.509Z,28.90
2022-08-03T13:33:43.224Z,28.70
2022-08-03T13:36:11.885Z,28.70
2022-08-03T13:38:40.744Z,28.90
2022-08-03T13:41:15.483Z,29.00
2022-08-03T13:43:44.932Z,28.90
2022-08-03T13:46:15.215Z,29.10
2022-08-03T13:48:43.929Z,29.00
2022-08-03T13:51:22.461Z,28.90
2022-08-03T13:53:52.346Z,29.00
2022-08-03T13:56:22.372Z,29.10
2022-08-03T13:59:21.213Z,28.90
2022-08-03T14:01:55.938Z,29.00
2022-08-03T14:04:24.794Z,28.80
2022-08-03T14:06:53.482Z,28.90
2022-08-03T14:09:27.988Z,28.90
2022-08-03T14:12:08.203Z,28.90
2022-08-03T14:14:37.590Z,28.90
2022-08-03T14:17:06.208Z,28.70
2022-08-03T14:19:52.601Z,28.70
2022-08-03T14:22:22.629Z,28.70
2022-08-03T14:24:51.557Z,28.70
2022-08-03T14:27:22.113Z,28.70
2022-08-03T14:29:50.974Z,28.70
2022-08-03T14:32:19.666Z,28.80
2022-08-03T14:34:48.448Z,28.90
2022-08-03T14:37:17.128Z,28.90
2022-08-03T14:40:02.366Z,28.90
2022-08-03T14:42:32.498Z,28.70
2022-08-03T14:45:05.846Z,28.70
2022-08-03T14:47:36.500Z,28.60
2022-08-03T14:50:36.559Z,28.70
2022-08-03T14:53:09.450Z,28.90
2022-08-03T14:55:38.721Z,28.90
2022-08-03T14:58:20.958Z,29.10
2022-08-03T15:00:51.355Z,28.90
2022-08-03T15:03:23.680Z,29.00
2022-08-03T15:05:53.003Z,29.20
2022-08-03T15:08:22.124Z,29.30
2022-08-03T15:10:50.895Z,29.40
2022-08-03T15:13:21.264Z,29.70
2022-08-03T15:15:51.906Z,29.70
2022-08-03T15:18:21.319Z,29.50
2022-08-03T15:20:51.025Z,29.60
2022-08-03T15:23:19.847Z,29.60
2022-08-03T15:26:03.800Z,29.30
2022-08-03T15:28:39.105Z,29.00
2022-08-03T15:31:07.976Z,28.90
2022-08-03T15:33:36.654Z,29.20
2022-08-03T15:36:05.756Z,29.40
2022-08-03T15:38:34.326Z,29.30
2022-08-03T15:41:03.841Z,29.30
2022-08-03T15:43:32.400Z,29.50
2022-08-03T15:46:28.218Z,29.40
2022-08-03T15:48:51.770Z,29.50
2022-08-03T15:51:20.489Z,29.60
2022-08-03T15:53:49.159Z,29.70
2022-08-03T15:56:18.853Z,29.80
2022-08-03T15:59:04.173Z,30.00
2022-08-03T16:01:38.072Z,30.00
2022-08-03T16:04:06.820Z,29.80
2022-08-03T16:06:36.554Z,29.70
2022-08-03T16:09:24.199Z,29.80
2022-08-03T16:11:55.483Z,30.30
2022-08-03T16:14:34.516Z,30.00
2022-08-03T16:17:06.179Z,30.20
2022-08-03T16:19:35.510Z,30.40
2022-08-03T16:22:04.522Z,30.60
2022-08-03T16:24:33.139Z,30.60
2022-08-03T16:32:08.985Z,30.50
2022-08-03T16:34:40.346Z,29.90
2022-08-03T16:37:36.570Z,29.90
2022-08-03T16:39:57.943Z,29.80
2022-08-03T16:42:26.685Z,30.10
2022-08-03T16:44:55.298Z,30.20
2022-08-03T16:47:24.140Z,30.40
2022-08-03T16:49:56.459Z,31.40
2022-08-03T16:52:25.690Z,32.30
2022-08-03T16:54:54.890Z,32.80
2022-08-03T16:58:00.037Z,33.70
2022-08-03T17:00:33.375Z,34.20
2022-08-03T17:03:04.409Z,34.40
2022-08-03T17:05:46.943Z,34.50
2022-08-03T17:08:16.364Z,34.10
2022-08-03T17:10:54.915Z,33.60
2022-08-03T17:13:39.402Z,32.80
2022-08-03T17:16:09.895Z,31.70
2022-08-03T17:18:42.280Z,30.20
2022-08-03T17:21:18.732Z,29.30
2022-08-03T17:23:53.465Z,28.80
2022-08-03T17:26:24.445Z,28.40
2022-08-03T17:29:12.860Z,27.90
2022-08-03T17:31:49.065Z,27.30
2022-08-03T17:34:19.119Z,26.70
2022-08-03T17:37:05.859Z,26.30
2022-08-03T17:39:58.235Z,25.90
2022-08-03T17:42:30.183Z,25.60
2022-08-03T17:45:01.964Z,25.20
2022-08-03T17:47:42.343Z,25.00
2022-08-03T17:50:25.050Z,24.70
2022-08-03T17:53:07.429Z,24.40
2022-08-03T17:55:57.180Z,24.10
2022-08-03T17:58:45.556Z,23.90
2022-08-03T18:02:03.400Z,23.70
2022-08-03T18:04:34.354Z,23.40
2022-08-03T18:07:11.571Z,23.20
2022-08-03T18:12:45.124Z,22.80
2022-08-03T18:15:22.087Z,22.60
2022-08-03T18:17:55.836Z,22.40
2022-08-03T18:20:40.930Z,22.20
2022-08-03T18:23:24.896Z,22.00
2022-08-03T18:26:02.708Z,21.80
2022-08-03T18:28:34.972Z,21.60
2022-08-03T18:31:06.042Z,21.50
2022-08-03T18:34:19.021Z,21.40
2022-08-03T18:36:29.604Z,21.20
2022-08-03T18:39:00.567Z,21.00
2022-08-03T18:41:34.573Z,20.90
2022-08-03T18:44:08.469Z,20.80
2022-08-03T18:46:48.270Z,20.60
2022-08-03T18:49:21.147Z,20.60
2022-08-03T18:51:51.502Z,20.40
2022-08-03T18:54:45.720Z,20.30
2022-08-03T18:57:20.922Z,20.20
2022-08-03T19:00:00.484Z,20.10
2022-08-03T19:02:35.768Z,20.00
2022-08-03T19:05:06.420Z,20.00
2022-08-03T19:07:36.843Z,19.90
2022-08-03T19:10:07.228Z,19.80
2022-08-03T19:12:44.675Z,19.70
2022-08-03T19:15:15.573Z,19.70
2022-08-03T19:17:50.330Z,19.60
2022-08-03T19:20:22.779Z,19.50
2022-08-03T19:22:54.606Z,19.40
2022-08-03T19:25:33.396Z,19.40
2022-08-03T19:28:07.373Z,19.40
2022-08-03T19:30:40.248Z,19.40
2022-08-03T19:33:10.097Z,19.30
2022-08-03T19:35:55.547Z,19.30
2022-08-03T19:38:29.163Z,19.30
2022-08-03T19:41:00.036Z,19.30
2022-08-03T19:43:33.116Z,19.30
2022-08-03T19:46:20.664Z,19.20
2022-08-03T19:48:54.009Z,19.20
2022-08-03T19:52:01.827Z,19.20
2022-08-03T19:54:15.133Z,19.20
2022-08-03T19:56:47.807Z,19.20
2022-08-03T19:59:18.525Z,19.10
2022-08-03T20:01:50.205Z,19.20
2022-08-03T20:04:20.658Z,19.10
2022-08-03T20:06:51.959Z,19.00
2022-08-03T20:09:21.635Z,19.00
2022-08-03T20:11:50.436Z,19.00
2022-08-03T20:14:26.391Z,18.90
2022-08-03T20:16:55.545Z,18.90
2022-08-03T20:19:24.975Z,18.80
2022-08-03T20:22:02.015Z,18.70
2022-08-03T20:24:34.335Z,18.70
2022-08-03T20:27:07.895Z,18.70
2022-08-03T20:30:05.212Z,18.60
2022-08-03T20:32:30.810Z,18.60
2022-08-03T20:35:01.113Z,18.60
2022-08-03T20:37:30.461Z,18.50
2022-08-03T20:40:00.000Z,18.50
2022-08-03T20:42:28.580Z,18.50
2022-08-03T20:45:04.351Z,18.50
2022-08-03T20:47:35.872Z,18.40
2022-08-03T20:50:07.740Z,18.40
2022-08-03T20:52:43.949Z,18.40
2022-08-03T20:55:20.235Z,18.30
2022-08-03T20:58:08.313Z,18.30
2022-08-03T21:00:38.325Z,18.30
2022-08-03T21:03:08.941Z,18.30
2022-08-03T21:05:51.056Z,18.30
2022-08-03T21:08:22.174Z,18.30
2022-08-03T21:10:51.280Z,18.20
2022-08-03T21:12:57.102Z,23.00
2022-08-03T21:13:25.006Z,18.20
2022-08-03T21:16:12.135Z,18.20
2022-08-03T21:18:44.723Z,18.20
2022-08-03T21:21:14.940Z,18.20
2022-08-03T21:23:48.798Z,18.20
2022-08-03T21:26:18.695Z,18.10
2022-08-03T21:28:47.805Z,18.00
2022-08-03T21:31:21.361Z,17.90
2022-08-03T21:33:55.343Z,17.90
2022-08-03T21:36:24.557Z,17.80
2022-08-03T21:38:57.049Z,17.70
2022-08-03T21:41:27.040Z,17.70
2022-08-03T21:43:55.750Z,17.70
2022-08-03T21:46:27.328Z,17.70
2022-08-03T21:49:52.043Z,17.70
2022-08-03T21:51:46.521Z,17.70
2022-08-03T21:54:15.511Z,17.60
2022-08-03T21:56:44.456Z,17.60
2022-08-03T21:59:17.004Z,17.60
2022-08-03T22:01:49.361Z,17.50
2022-08-03T22:04:53.030Z,17.50
2022-08-03T22:07:10.464Z,17.50
2022-08-03T22:09:39.040Z,17.50
2022-08-03T22:12:07.971Z,17.60
2022-08-03T22:14:36.558Z,17.60
2022-08-03T22:17:07.355Z,17.70
2022-08-03T22:19:36.698Z,17.70
2022-08-03T22:22:07.805Z,17.70
2022-08-03T22:24:37.071Z,17.70
2022-08-03T22:27:23.311Z,17.70
2022-08-03T22:29:52.803Z,17.70
2022-08-03T22:32:23.789Z,17.70
2022-08-03T22:34:52.991Z,17.60
2022-08-03T22:37:22.795Z,17.70
2022-08-03T22:39:52.090Z,17.60
2022-08-03T22:42:21.237Z,17.60
2022-08-03T22:44:50.485Z,17.70
2022-08-03T22:47:22.556Z,17.60
2022-08-03T22:50:31.647Z,17.60
2022-08-03T22:52:45.336Z,17.60
2022-08-03T22:55:18.914Z,17.60
2022-08-03T22:57:56.148Z,17.50
2022-08-03T23:00:25.419Z,17.50
2022-08-03T23:02:55.169Z,17.50
2022-08-03T23:06:01.070Z,17.50
2022-08-03T23:08:15.749Z,17.50
2022-08-03T23:10:47.204Z,17.40
2022-08-03T23:13:17.029Z,17.40
2022-08-03T23:15:46.890Z,17.40
2022-08-03T23:18:15.571Z,17.40
2022-08-03T23:20:45.498Z,17.40
2022-08-03T23:23:19.997Z,17.40
2022-08-03T23:25:50.738Z,17.40
2022-08-03T23:28:19.536Z,17.40
2022-08-03T23:30:49.991Z,17.40
2022-08-03T23:33:18.944Z,17.30
2022-08-03T23:36:28.256Z,17.30
2022-08-03T23:38:50.510Z,17.20
2022-08-03T23:41:20.245Z,17.20
2022-08-03T23:43:51.959Z,17.20
2022-08-03T23:46:22.971Z,17.20
2022-08-03T23:48:51.810Z,17.20
2022-08-03T23:51:28.791Z,17.20
2022-08-03T23:54:03.633Z,17.10
2022-08-03T23:56:35.760Z,17.10
2022-08-03T23:59:08.020Z,17.10
